Terminal Aerodrome Forecast
Issued by NWS Mt. Holly, NJ

Current Version | Previous Version | Text Only | Print | Product List | Glossary On
Versions: 1 2 3 4 5 6 7 8 9 10 11 12 13 14 15 16
000
FTUS41 KPHI 201100
TAFACY
TAF
KACY 201120Z 2012/2112 19006KT P6SM BKN250
     FM201600 19010KT P6SM SCT150 BKN250
     FM210100 22006KT P6SM BKN150
     FM210400 VRB03KT P6SM OVC100=

USA.gov is the U.S. government's official web portal to all federal, state and local government web resources and services.